Time;durP1;ratioP1;P1;durP2;ratioP2;P2;SDS_P1;SDS_P2;PMS_P1;PMS_P2;Temp;Humidity;BMP_temperature;BMP_pressure;BME280_temperature;BME280_humidity;BME280_pressure;Samples;Min_cycle;Max_cycle;Signal;HPM_P1;HPM_P2
2021/05/07 00:01:58;;;;;;;0.60;0.60;;;9.60;99.90;;;;;;5092101;28;20628;-88
2021/05/07 00:04:25;;;;;;;0.70;0.70;;;9.50;99.90;;;;;;5089932;28;20709;-88
2021/05/07 00:06:52;;;;;;;1.40;1.13;;;9.50;99.90;;;;;;5087832;28;20628;-88
2021/05/07 00:09:19;;;;;;;0.67;0.67;;;9.50;99.90;;;;;;5085689;28;20754;-87
2021/05/07 00:11:46;;;;;;;0.80;0.80;;;9.50;99.90;;;;;;5095118;28;20633;-88
2021/05/07 00:14:13;;;;;;;0.70;0.70;;;9.50;99.90;;;;;;5104143;28;20623;-88
2021/05/07 00:16:40;;;;;;;1.40;0.87;;;9.50;99.90;;;;;;5107889;28;20626;-88
2021/05/07 00:19:07;;;;;;;0.87;0.57;;;9.50;99.90;;;;;;5109512;28;20612;-89
2021/05/07 00:21:35;;;;;;;0.80;0.50;;;9.40;99.90;;;;;;5108563;28;20633;-88
2021/05/07 00:24:02;;;;;;;0.80;0.50;;;9.40;99.90;;;;;;5112304;28;20611;-87
2021/05/07 00:26:28;;;;;;;0.70;0.50;;;9.30;99.90;;;;;;5115645;28;20599;-87
2021/05/07 00:28:56;;;;;;;0.60;0.60;;;9.30;99.90;;;;;;5109516;28;20697;-88
2021/05/07 00:31:22;;;;;;;0.70;0.70;;;9.30;99.90;;;;;;5112109;28;20675;-87
2021/05/07 00:33:50;;;;;;;0.60;0.60;;;9.30;99.90;;;;;;5113440;28;20616;-89
2021/05/07 00:36:16;;;;;;;0.77;0.57;;;9.40;99.90;;;;;;5111604;28;20612;-87
2021/05/07 00:38:43;;;;;;;1.67;0.60;;;9.30;99.90;;;;;;5107186;28;21013;-87
2021/05/07 00:41:09;;;;;;;1.67;1.10;;;9.30;99.90;;;;;;5112868;28;20634;-88
2021/05/07 00:43:38;;;;;;;0.53;0.53;;;9.30;99.90;;;;;;5104081;28;20627;-87
2021/05/07 00:46:05;;;;;;;0.50;0.47;;;9.30;99.90;;;;;;5100223;28;20980;-88
2021/05/07 00:48:32;;;;;;;0.97;0.50;;;9.30;99.90;;;;;;5087320;28;20624;-88
2021/05/07 00:50:59;;;;;;;1.43;0.93;;;9.40;99.90;;;;;;5090111;28;20652;-87
2021/05/07 00:53:28;;;;;;;0.70;0.57;;;9.30;99.90;;;;;;5094181;28;20640;-89
2021/05/07 00:55:54;;;;;;;0.60;0.60;;;9.30;99.90;;;;;;5096800;28;20628;-88
2021/05/07 00:58:21;;;;;;;0.70;0.60;;;9.20;99.90;;;;;;5092704;28;21190;-88
2021/05/07 01:00:48;;;;;;;0.73;0.60;;;9.30;99.90;;;;;;5082976;28;20641;-88
2021/05/07 01:03:16;;;;;;;0.60;0.60;;;9.20;99.90;;;;;;5087711;28;20609;-88
2021/05/07 01:05:42;;;;;;;0.60;0.60;;;9.10;99.90;;;;;;5094859;28;20612;-89
2021/05/07 01:08:09;;;;;;;0.63;0.63;;;9.20;99.90;;;;;;5090862;28;20645;-88
2021/05/07 01:10:35;;;;;;;0.70;0.67;;;9.20;99.90;;;;;;5101447;28;20710;-88
2021/05/07 01:13:02;;;;;;;0.70;0.60;;;9.20;99.90;;;;;;5096000;28;20628;-88
2021/05/07 01:15:28;;;;;;;0.70;0.70;;;9.10;99.90;;;;;;5105996;28;20619;-88
2021/05/07 01:17:56;;;;;;;0.77;0.73;;;9.10;99.90;;;;;;5107391;28;20633;-89
2021/05/07 01:20:25;;;;;;;0.80;0.60;;;9.00;99.90;;;;;;5096658;28;21015;-88
2021/05/07 01:22:53;;;;;;;0.70;0.60;;;9.00;99.90;;;;;;5102971;28;20650;-88
2021/05/07 01:25:21;;;;;;;0.93;0.60;;;9.00;99.90;;;;;;5093881;28;20637;-88
2021/05/07 01:27:49;;;;;;;1.47;0.90;;;8.90;99.90;;;;;;5097111;28;20624;-89
2021/05/07 01:30:18;;;;;;;0.90;0.60;;;8.90;99.90;;;;;;5098343;28;20681;-89
2021/05/07 01:32:45;;;;;;;0.77;0.70;;;8.80;99.90;;;;;;5092922;28;20593;-88
2021/05/07 01:35:14;;;;;;;0.77;0.50;;;8.80;99.90;;;;;;5111164;28;20628;-89
2021/05/07 01:37:42;;;;;;;0.70;0.60;;;8.80;99.90;;;;;;5112527;28;20639;-90
2021/05/07 01:40:15;;;;;;;1.20;0.90;;;8.70;99.90;;;;;;5100223;28;20655;-88
2021/05/07 01:42:41;;;;;;;0.57;0.57;;;8.60;99.90;;;;;;5108585;28;20628;-88
2021/05/07 01:45:09;;;;;;;0.80;0.80;;;8.60;99.90;;;;;;5109196;28;20591;-89
2021/05/07 01:47:37;;;;;;;1.30;0.67;;;8.50;99.90;;;;;;5110696;28;20612;-89
2021/05/07 01:50:05;;;;;;;0.60;0.60;;;8.40;99.90;;;;;;5118561;28;20708;-88
2021/05/07 01:52:32;;;;;;;0.60;0.60;;;8.30;99.90;;;;;;5110774;28;20631;-87
2021/05/07 01:55:02;;;;;;;0.83;0.63;;;8.20;99.90;;;;;;5119640;28;20682;-87
2021/05/07 01:57:29;;;;;;;0.97;0.87;;;8.20;99.90;;;;;;5110959;28;20645;-88
2021/05/07 01:59:55;;;;;;;0.87;0.87;;;8.20;99.90;;;;;;5105118;28;20719;-86
2021/05/07 02:02:21;;;;;;;0.97;0.80;;;8.10;99.90;;;;;;5116454;28;20679;-88
2021/05/07 02:04:48;;;;;;;0.80;0.70;;;8.10;99.90;;;;;;5108213;28;20685;-90
2021/05/07 02:07:16;;;;;;;0.80;0.70;;;8.00;99.90;;;;;;5114083;28;20715;-86
2021/05/07 02:09:42;;;;;;;0.90;0.77;;;8.00;99.90;;;;;;5118028;28;20676;-87
2021/05/07 02:12:10;;;;;;;1.43;1.33;;;8.00;99.90;;;;;;5114047;28;20690;-87
2021/05/07 02:14:45;;;;;;;1.90;0.80;;;8.00;99.90;;;;;;5106680;28;20625;-89
2021/05/07 02:17:12;;;;;;;0.80;0.67;;;7.90;99.90;;;;;;5099242;28;20663;-88
2021/05/07 02:19:39;;;;;;;3.13;0.63;;;8.00;99.90;;;;;;5098809;28;20656;-89
2021/05/07 02:22:07;;;;;;;0.70;0.70;;;8.00;99.90;;;;;;5095920;28;20628;-88
2021/05/07 02:24:33;;;;;;;0.60;0.60;;;8.00;99.90;;;;;;5095306;28;20632;-88
2021/05/07 02:27:01;;;;;;;0.70;0.70;;;7.90;99.90;;;;;;5078870;28;20636;-89
2021/05/07 02:29:28;;;;;;;2.30;1.10;;;8.00;99.90;;;;;;5102282;28;20663;-88
2021/05/07 02:31:55;;;;;;;1.43;0.73;;;8.00;99.90;;;;;;5106323;28;20635;-88
2021/05/07 02:34:21;;;;;;;0.70;0.70;;;8.00;99.90;;;;;;5098988;28;20620;-89
2021/05/07 02:36:48;;;;;;;0.80;0.80;;;8.00;99.90;;;;;;5110975;28;20728;-88
2021/05/07 02:39:15;;;;;;;1.03;1.00;;;7.90;99.90;;;;;;5114191;28;20581;-88
2021/05/07 02:41:46;;;;;;;1.73;1.10;;;7.90;99.90;;;;;;5111816;28;20620;-87
2021/05/07 02:44:12;;;;;;;1.23;0.93;;;7.90;99.90;;;;;;5110871;28;20616;-88
2021/05/07 02:46:39;;;;;;;1.10;0.80;;;7.90;99.90;;;;;;5106644;28;20617;-86
2021/05/07 02:49:07;;;;;;;1.47;0.90;;;7.90;99.90;;;;;;5109159;28;20753;-88
2021/05/07 02:51:35;;;;;;;2.17;1.43;;;7.90;99.90;;;;;;5108448;28;20672;-87
2021/05/07 02:54:02;;;;;;;2.00;0.80;;;8.00;99.90;;;;;;5109921;28;20631;-88
2021/05/07 02:56:29;;;;;;;1.00;0.83;;;8.00;99.90;;;;;;5111255;28;20692;-87
2021/05/07 02:58:55;;;;;;;1.10;1.07;;;7.90;99.90;;;;;;5102955;28;20634;-89
2021/05/07 03:01:22;;;;;;;1.20;0.80;;;8.00;99.90;;;;;;5111260;28;20688;-88
2021/05/07 03:03:50;;;;;;;0.83;0.80;;;8.00;99.90;;;;;;5098805;28;20635;-88
2021/05/07 03:06:17;;;;;;;3.00;0.87;;;7.90;99.90;;;;;;5095429;28;20623;-88
2021/05/07 03:08:44;;;;;;;0.80;0.80;;;7.90;99.90;;;;;;5109769;28;20647;-88
2021/05/07 03:11:10;;;;;;;1.13;1.03;;;8.00;99.90;;;;;;5088299;28;20713;-89
2021/05/07 03:13:36;;;;;;;1.40;0.97;;;8.00;99.90;;;;;;5093631;28;20635;-88
2021/05/07 03:16:04;;;;;;;1.20;0.93;;;8.00;99.90;;;;;;5087719;28;20666;-88
2021/05/07 03:18:31;;;;;;;0.80;0.80;;;8.00;99.90;;;;;;5085849;28;20632;-87
2021/05/07 03:20:59;;;;;;;2.27;1.03;;;7.90;99.90;;;;;;5089223;28;20676;-89
2021/05/07 03:23:26;;;;;;;1.00;1.00;;;7.90;99.90;;;;;;5084656;28;20622;-89
2021/05/07 03:25:53;;;;;;;1.10;1.00;;;8.10;99.90;;;;;;5090167;28;20650;-88
2021/05/07 03:28:21;;;;;;;0.73;0.73;;;7.90;99.90;;;;;;5082304;28;20632;-88
2021/05/07 03:30:54;;;;;;;1.70;1.03;;;7.90;99.90;;;;;;5093200;28;20735;-90
2021/05/07 03:33:21;;;;;;;1.10;1.00;;;7.80;99.90;;;;;;5069883;28;21000;-89
2021/05/07 03:35:49;;;;;;;2.07;1.10;;;7.80;99.90;;;;;;5090760;28;20631;-89
2021/05/07 03:38:17;;;;;;;0.90;0.90;;;7.80;99.90;;;;;;5086197;28;20711;-90
2021/05/07 03:40:44;;;;;;;1.00;0.83;;;7.80;99.90;;;;;;5093042;28;20668;-90
2021/05/07 03:43:10;;;;;;;1.17;1.07;;;7.80;99.90;;;;;;5088306;28;20618;-89
2021/05/07 03:45:36;;;;;;;2.50;1.20;;;7.90;99.90;;;;;;5088575;28;20601;-88
2021/05/07 03:48:13;;;;;;;1.33;1.13;;;7.80;99.90;;;;;;5093373;28;20642;-89
2021/05/07 03:50:39;;;;;;;1.23;1.13;;;7.90;99.90;;;;;;5084222;28;20668;-88
2021/05/07 03:53:06;;;;;;;1.77;1.23;;;7.90;99.90;;;;;;5094715;28;20596;-88
2021/05/07 03:55:35;;;;;;;1.40;1.30;;;7.70;99.90;;;;;;5085566;28;20641;-90
2021/05/07 03:58:01;;;;;;;1.60;1.50;;;7.70;99.90;;;;;;5085593;28;20637;-87
2021/05/07 04:00:27;;;;;;;1.70;1.60;;;7.60;99.90;;;;;;5077655;28;20657;-89
2021/05/07 04:02:53;;;;;;;1.97;1.40;;;7.60;99.90;;;;;;5095910;28;20639;-88
2021/05/07 04:05:20;;;;;;;1.90;1.80;;;7.60;99.90;;;;;;5088257;28;20639;-88
2021/05/07 04:07:52;;;;;;;1.80;1.70;;;7.60;99.90;;;;;;5085448;28;20639;-89
2021/05/07 04:10:25;;;;;;;2.87;2.00;;;7.60;99.90;;;;;;5092040;28;20707;-90
2021/05/07 04:15:36;;;;;;;2.00;1.87;;;7.50;99.90;;;;;;5089321;28;20588;-89
2021/05/07 04:18:03;;;;;;;2.57;2.37;;;7.50;99.90;;;;;;5087352;28;20639;-89
2021/05/07 04:20:31;;;;;;;2.60;2.40;;;7.50;99.90;;;;;;5087935;28;20648;-88
2021/05/07 04:22:57;;;;;;;2.50;2.40;;;7.50;99.90;;;;;;5099474;28;20676;-88
2021/05/07 04:25:24;;;;;;;2.83;2.63;;;7.50;99.90;;;;;;5094738;28;20623;-88
2021/05/07 04:27:51;;;;;;;2.87;2.30;;;7.40;99.90;;;;;;5089148;28;20612;-89
2021/05/07 04:30:18;;;;;;;2.83;2.63;;;7.40;99.90;;;;;;5086510;28;20679;-88
2021/05/07 04:32:45;;;;;;;2.73;2.53;;;7.40;99.90;;;;;;5086675;28;20768;-89
2021/05/07 04:35:12;;;;;;;2.33;2.13;;;7.30;99.90;;;;;;5088529;28;20671;-87
2021/05/07 04:37:38;;;;;;;2.20;2.10;;;7.30;99.90;;;;;;5087739;28;20640;-88
2021/05/07 04:40:06;;;;;;;2.83;2.10;;;7.30;99.90;;;;;;5092944;28;20698;-89
2021/05/07 04:42:32;;;;;;;2.53;2.33;;;7.40;99.90;;;;;;5090344;28;20623;-89
2021/05/07 04:45:00;;;;;;;3.03;2.83;;;7.40;99.90;;;;;;5097633;28;20635;-88
2021/05/07 04:47:26;;;;;;;2.23;2.13;;;7.50;99.90;;;;;;5089102;28;20699;-88
2021/05/07 04:49:52;;;;;;;2.57;2.37;;;7.30;99.90;;;;;;5088817;28;20677;-89
2021/05/07 04:52:19;;;;;;;2.40;1.83;;;7.40;99.90;;;;;;5098244;28;20624;-89
2021/05/07 04:54:47;;;;;;;2.77;2.10;;;7.30;99.90;;;;;;5094048;28;21258;-89
2021/05/07 04:57:14;;;;;;;2.40;2.23;;;7.40;99.90;;;;;;5098848;28;20604;-88
2021/05/07 04:59:40;;;;;;;2.80;2.60;;;7.40;99.90;;;;;;5092992;28;20644;-89
2021/05/07 05:02:08;;;;;;;2.83;2.30;;;7.40;99.90;;;;;;5102999;28;20638;-89
2021/05/07 05:04:34;;;;;;;5.80;3.10;;;7.40;99.90;;;;;;5100009;28;20636;-89
2021/05/07 05:07:07;;;;;;;3.13;2.93;;;7.30;99.90;;;;;;5099312;28;20651;-91
2021/05/07 05:09:33;;;;;;;3.37;3.07;;;7.30;99.90;;;;;;5098333;28;20676;-90
2021/05/07 05:12:00;;;;;;;3.00;2.80;;;7.40;99.90;;;;;;5087906;28;20662;-90
2021/05/07 05:14:26;;;;;;;3.10;2.63;;;7.40;99.90;;;;;;5087700;28;20632;-89
2021/05/07 05:16:52;;;;;;;3.30;3.10;;;7.40;99.90;;;;;;5090042;28;20631;-89
2021/05/07 05:19:20;;;;;;;1.70;1.60;;;7.40;99.90;;;;;;5094137;28;21178;-90
2021/05/07 05:21:46;;;;;;;1.90;1.80;;;7.30;99.90;;;;;;5092928;28;20682;-88
2021/05/07 05:24:12;;;;;;;2.17;2.07;;;7.30;99.90;;;;;;5097807;28;20648;-92
2021/05/07 05:26:40;;;;;;;2.70;2.50;;;7.30;99.90;;;;;;5092568;28;20607;-90
2021/05/07 05:29:09;;;;;;;2.30;2.10;;;7.30;99.90;;;;;;5100865;28;20628;-91
2021/05/07 05:31:36;;;;;;;2.10;2.00;;;7.10;99.90;;;;;;5074886;28;20636;-90
2021/05/07 05:34:02;;;;;;;2.60;2.30;;;7.10;99.90;;;;;;5091955;28;20667;-90
2021/05/07 05:36:29;;;;;;;2.40;2.20;;;7.10;99.90;;;;;;5089746;28;20660;-85
2021/05/07 05:38:56;;;;;;;4.10;2.67;;;7.10;99.90;;;;;;5086060;28;20985;-90
2021/05/07 05:41:23;;;;;;;3.63;3.33;;;7.20;99.90;;;;;;5085062;28;20615;-91
2021/05/07 05:43:50;;;;;;;3.90;3.53;;;7.20;99.90;;;;;;5085143;28;20635;-91
2021/05/07 05:46:17;;;;;;;3.50;3.20;;;7.20;99.90;;;;;;5093230;28;20731;-92
2021/05/07 05:48:47;;;;;;;2.87;2.67;;;7.10;99.90;;;;;;5088748;28;20925;-92
2021/05/07 05:51:13;;;;;;;6.50;3.83;;;7.10;99.90;;;;;;5087465;28;20679;-91
2021/05/07 05:53:43;;;;;;;4.30;3.90;;;7.20;99.90;;;;;;5082413;28;20992;-88
2021/05/07 05:56:14;;;;;;;3.93;3.63;;;7.20;99.90;;;;;;5084671;28;21056;-90
2021/05/07 05:58:41;;;;;;;3.40;3.20;;;7.20;99.90;;;;;;5092599;28;20679;-90
2021/05/07 06:01:08;;;;;;;3.40;3.10;;;7.30;99.90;;;;;;5088758;28;20715;-89
2021/05/07 06:03:34;;;;;;;3.43;2.97;;;7.40;99.90;;;;;;5084695;28;20635;-89
2021/05/07 06:06:00;;;;;;;3.63;3.20;;;7.50;99.90;;;;;;5081168;28;20637;-89
2021/05/07 06:08:26;;;;;;;4.00;3.60;;;7.40;99.90;;;;;;5078128;28;20674;-90
2021/05/07 06:10:54;;;;;;;3.37;3.17;;;7.50;99.90;;;;;;5086317;28;21089;-87
2021/05/07 06:13:20;;;;;;;3.73;3.43;;;7.40;99.90;;;;;;5082537;28;20608;-88
2021/05/07 06:15:46;;;;;;;3.70;3.27;;;7.40;99.90;;;;;;5085523;28;20632;-88
2021/05/07 06:18:12;;;;;;;3.60;3.33;;;7.30;99.90;;;;;;5088576;28;21266;-89
2021/05/07 06:20:39;;;;;;;4.03;3.73;;;7.30;99.90;;;;;;5082930;28;20660;-89
2021/05/07 06:23:06;;;;;;;6.20;3.80;;;7.50;99.90;;;;;;5086187;28;20624;-87
2021/05/07 06:25:32;;;;;;;4.83;4.40;;;7.50;99.90;;;;;;5090979;28;21122;-89
2021/05/07 06:27:59;;;;;;;10.30;4.87;;;7.50;99.90;;;;;;5083199;28;20664;-89
2021/05/07 06:30:27;;;;;;;7.00;4.87;;;7.60;99.90;;;;;;5077832;28;20756;-90
2021/05/07 06:32:54;;;;;;;4.77;4.00;;;7.80;99.90;;;;;;5077607;28;20621;-89
2021/05/07 06:35:21;;;;;;;5.90;4.27;;;7.80;99.90;;;;;;5082219;28;20638;-88
2021/05/07 06:37:47;;;;;;;4.10;3.80;;;7.90;99.90;;;;;;5084603;28;21253;-89
2021/05/07 06:40:14;;;;;;;4.00;3.60;;;7.90;99.90;;;;;;5085516;28;20640;-90
2021/05/07 06:42:41;;;;;;;4.27;3.90;;;8.00;99.90;;;;;;5084062;28;20969;-90
2021/05/07 06:45:10;;;;;;;4.43;4.13;;;8.00;99.90;;;;;;5089001;28;20658;-90
2021/05/07 06:47:37;;;;;;;5.93;4.67;;;7.90;99.90;;;;;;5081690;28;20735;-90
2021/05/07 06:50:07;;;;;;;5.00;4.60;;;7.90;99.90;;;;;;5087259;28;20765;-90
2021/05/07 06:52:33;;;;;;;5.10;4.73;;;7.90;99.90;;;;;;5097325;28;20987;-89
2021/05/07 06:55:00;;;;;;;5.57;5.03;;;7.90;99.90;;;;;;5086139;28;21150;-89
2021/05/07 06:57:28;;;;;;;5.90;5.40;;;7.80;99.90;;;;;;5082263;28;20664;-92
2021/05/07 06:59:54;;;;;;;6.40;5.80;;;7.80;99.90;;;;;;5079837;28;20633;-88
2021/05/07 07:02:22;;;;;;;5.67;5.17;;;7.70;99.90;;;;;;5085207;28;21229;-90
2021/05/07 07:04:48;;;;;;;5.33;4.83;;;7.80;99.90;;;;;;5082175;28;21125;-89
2021/05/07 07:07:15;;;;;;;5.93;5.40;;;7.80;99.90;;;;;;5083848;28;20663;-88
2021/05/07 07:09:41;;;;;;;6.53;5.93;;;7.80;99.90;;;;;;5083643;28;20729;-88
2021/05/07 07:12:08;;;;;;;6.30;5.80;;;7.70;99.90;;;;;;5081872;28;20640;-89
2021/05/07 07:14:38;;;;;;;7.50;6.80;;;7.70;99.90;;;;;;5082383;28;20624;-88
2021/05/07 07:17:05;;;;;;;6.43;5.73;;;7.60;99.90;;;;;;5079108;28;20690;-89
2021/05/07 07:19:35;;;;;;;7.30;5.87;;;7.80;99.90;;;;;;5085277;28;20629;-95
2021/05/07 07:22:03;;;;;;;5.83;5.03;;;7.80;99.90;;;;;;5064449;28;20994;-87
2021/05/07 07:24:29;;;;;;;6.40;5.90;;;7.70;99.90;;;;;;5082981;28;20623;-89
2021/05/07 07:26:57;;;;;;;6.30;5.70;;;7.70;99.90;;;;;;5077875;28;21340;-88
2021/05/07 07:29:23;;;;;;;5.57;5.17;;;7.70;99.90;;;;;;5081919;28;21433;-88
2021/05/07 07:31:51;;;;;;;6.60;6.00;;;7.60;99.90;;;;;;5074249;28;20635;-87
2021/05/07 07:34:18;;;;;;;6.50;5.97;;;7.60;99.90;;;;;;5082927;28;20613;-87
2021/05/07 07:36:45;;;;;;;6.57;5.97;;;7.90;99.90;;;;;;5081579;28;20651;-86
2021/05/07 07:39:12;;;;;;;7.03;6.53;;;7.80;99.90;;;;;;5083545;28;21166;-87
2021/05/07 07:41:38;;;;;;;6.23;5.73;;;7.60;99.90;;;;;;5084000;28;20650;-86
2021/05/07 07:44:06;;;;;;;6.50;5.80;;;7.60;99.90;;;;;;5084724;28;20615;-86
2021/05/07 07:46:32;;;;;;;7.73;7.13;;;7.60;99.90;;;;;;5078956;28;20648;-87
2021/05/07 07:48:59;;;;;;;8.43;7.53;;;7.60;99.90;;;;;;5077703;28;20636;-86
2021/05/07 07:51:29;;;;;;;5.90;5.50;;;7.70;99.90;;;;;;5081052;28;20667;-86
2021/05/07 07:53:56;;;;;;;7.43;6.83;;;7.70;99.90;;;;;;5065100;28;20636;-86
2021/05/07 07:56:22;;;;;;;7.37;6.77;;;7.80;99.90;;;;;;5083782;28;20616;-87
2021/05/07 07:58:49;;;;;;;7.10;6.33;;;7.70;99.90;;;;;;5080747;28;20635;-87
2021/05/07 08:01:15;;;;;;;7.77;7.07;;;7.80;99.90;;;;;;5083501;28;21182;-86
2021/05/07 08:03:41;;;;;;;7.23;6.53;;;8.10;99.90;;;;;;5080479;28;20608;-86
2021/05/07 08:06:08;;;;;;;7.03;6.33;;;8.20;99.90;;;;;;5074778;28;20623;-86
2021/05/07 08:08:34;;;;;;;7.73;7.03;;;8.00;99.90;;;;;;5079846;28;20689;-86
2021/05/07 08:11:01;;;;;;;6.57;6.00;;;8.30;99.90;;;;;;5082477;28;20670;-86
2021/05/07 08:13:27;;;;;;;7.93;7.23;;;8.30;99.90;;;;;;5081356;28;20986;-86
2021/05/07 08:15:54;;;;;;;7.37;6.73;;;8.50;99.90;;;;;;5085537;28;21186;-87
2021/05/07 08:18:20;;;;;;;8.00;7.30;;;8.80;99.90;;;;;;5086452;28;20670;-87
2021/05/07 08:20:46;;;;;;;9.10;7.40;;;9.20;99.90;;;;;;5077357;28;20627;-86
2021/05/07 08:23:12;;;;;;;7.20;6.60;;;9.40;99.90;;;;;;5089279;28;20620;-86
2021/05/07 08:25:39;;;;;;;6.67;6.17;;;9.40;99.90;;;;;;5083045;28;20632;-86
2021/05/07 08:28:06;;;;;;;6.23;5.80;;;9.60;99.90;;;;;;5084552;28;21519;-86
2021/05/07 08:30:33;;;;;;;6.40;5.80;;;9.70;99.90;;;;;;5082953;28;20671;-86
2021/05/07 08:32:59;;;;;;;6.10;5.70;;;10.00;99.90;;;;;;5084951;28;21138;-86
2021/05/07 08:35:26;;;;;;;6.90;6.40;;;9.70;99.90;;;;;;5085862;28;20980;-86
2021/05/07 08:37:53;;;;;;;6.53;5.93;;;9.90;99.90;;;;;;5087403;28;20668;-87
2021/05/07 08:40:19;;;;;;;6.83;6.23;;;9.60;99.90;;;;;;5086392;28;20635;-88
2021/05/07 08:42:46;;;;;;;7.73;7.07;;;9.90;99.90;;;;;;5084837;28;20698;-88
2021/05/07 08:45:15;;;;;;;5.90;5.40;;;10.20;99.90;;;;;;5086845;28;21189;-87
2021/05/07 08:47:43;;;;;;;8.00;5.70;;;10.20;99.90;;;;;;5087313;28;20656;-87
2021/05/07 08:50:11;;;;;;;7.13;5.90;;;10.10;99.90;;;;;;5087639;28;21318;-86
2021/05/07 08:52:37;;;;;;;6.00;5.43;;;10.00;99.90;;;;;;5089244;28;20616;-87
2021/05/07 08:55:05;;;;;;;5.70;5.10;;;10.30;99.90;;;;;;5092175;28;20624;-88
2021/05/07 08:57:31;;;;;;;7.80;4.73;;;10.60;99.90;;;;;;5084477;28;20682;-88
2021/05/07 08:59:58;;;;;;;4.50;4.20;;;10.50;99.90;;;;;;5083257;28;20642;-87
2021/05/07 09:02:26;;;;;;;4.73;4.40;;;10.60;99.90;;;;;;5079697;28;20586;-87
2021/05/07 09:04:53;;;;;;;4.13;3.83;;;10.80;99.90;;;;;;5084631;28;20650;-87
2021/05/07 09:07:20;;;;;;;4.17;3.80;;;11.10;99.90;;;;;;5088015;28;20695;-87
2021/05/07 09:09:52;;;;;;;4.30;4.00;;;10.80;99.90;;;;;;5063748;28;20678;-88
2021/05/07 09:12:26;;;;;;;4.30;3.90;;;11.20;99.90;;;;;;5088402;28;20999;-88
2021/05/07 09:14:55;;;;;;;5.13;4.70;;;10.80;99.90;;;;;;5088571;28;20978;-88
2021/05/07 09:17:23;;;;;;;5.10;4.70;;;10.50;99.90;;;;;;5086177;28;20662;-88
2021/05/07 09:20:09;;;;;;;3.90;3.60;;;10.20;99.90;;;;;;5086395;28;20634;-86
2021/05/07 09:22:37;;;;;;;4.93;4.53;;;10.70;99.90;;;;;;5087064;28;20747;-88
2021/05/07 09:25:13;;;;;;;6.50;4.00;;;11.00;99.90;;;;;;5083620;28;20581;-87
2021/05/07 09:27:40;;;;;;;5.97;4.30;;;11.30;99.90;;;;;;5088800;28;20742;-88
2021/05/07 09:30:22;;;;;;;4.87;4.43;;;11.60;99.90;;;;;;5086833;28;20713;-88
2021/05/07 09:32:50;;;;;;;7.20;3.43;;;11.70;99.60;;;;;;5079225;28;20640;-88
2021/05/07 09:35:17;;;;;;;4.37;3.77;;;12.00;99.80;;;;;;5083398;28;21194;-88
2021/05/07 09:37:44;;;;;;;3.37;3.00;;;11.90;98.50;;;;;;5084549;28;20661;-87
2021/05/07 09:40:21;;;;;;;3.73;3.40;;;11.30;96.90;;;;;;5086302;28;20611;-87
2021/05/07 09:42:48;;;;;;;5.10;4.70;;;11.60;95.60;;;;;;5088576;28;20626;-88
2021/05/07 09:45:22;;;;;;;5.33;3.43;;;11.30;97.00;;;;;;5080403;28;20624;-87
2021/05/07 09:47:49;;;;;;;4.37;3.80;;;11.00;97.00;;;;;;5079842;28;20699;-87
2021/05/07 09:50:20;;;;;;;4.80;4.40;;;10.70;96.00;;;;;;5087869;28;20656;-87
2021/05/07 09:52:50;;;;;;;4.10;3.70;;;10.50;95.30;;;;;;5081234;28;21020;-88
2021/05/07 09:55:18;;;;;;;4.23;3.83;;;10.40;96.70;;;;;;5088825;28;20621;-87
2021/05/07 09:57:45;;;;;;;4.10;3.80;;;10.40;96.80;;;;;;5083850;28;20656;-88
2021/05/07 10:00:13;;;;;;;8.97;7.50;;;10.40;97.50;;;;;;5078093;28;20627;-88
2021/05/07 10:02:39;;;;;;;4.00;3.70;;;10.30;97.90;;;;;;5082186;28;20690;-88
2021/05/07 10:05:07;;;;;;;4.07;3.73;;;10.40;97.60;;;;;;5082864;28;20615;-87
2021/05/07 10:07:35;;;;;;;4.50;3.70;;;11.40;96.50;;;;;;5081279;28;20721;-87
2021/05/07 10:10:06;;;;;;;3.90;3.60;;;11.90;95.20;;;;;;5068188;28;20656;-87
2021/05/07 10:12:34;;;;;;;3.70;3.30;;;11.60;93.60;;;;;;5079743;28;20631;-87
2021/05/07 10:15:02;;;;;;;3.90;3.60;;;11.70;95.00;;;;;;5081513;28;20633;-86
2021/05/07 10:17:28;;;;;;;3.87;3.57;;;11.90;94.00;;;;;;5080203;28;20664;-87
2021/05/07 10:19:56;;;;;;;6.60;4.13;;;11.50;90.90;;;;;;5083067;28;20636;-87
2021/05/07 10:22:38;;;;;;;3.47;3.17;;;11.80;92.70;;;;;;5082533;28;20620;-88
2021/05/07 10:25:17;;;;;;;3.63;3.20;;;11.80;92.70;;;;;;5078507;28;21166;-87
2021/05/07 10:27:47;;;;;;;3.80;3.50;;;11.30;93.40;;;;;;5080360;28;20767;-87
2021/05/07 10:30:28;;;;;;;3.20;2.90;;;11.20;94.50;;;;;;5083457;28;20721;-88
2021/05/07 10:33:10;;;;;;;3.87;3.50;;;11.30;93.20;;;;;;5077508;28;20627;-88
2021/05/07 10:35:39;;;;;;;3.87;3.57;;;11.80;90.70;;;;;;5083489;28;20616;-87
2021/05/07 10:38:17;;;;;;;3.17;2.97;;;11.70;90.30;;;;;;5082880;28;20670;-87
2021/05/07 10:40:46;;;;;;;5.57;3.53;;;11.50;90.40;;;;;;5079866;28;21237;-87
2021/05/07 10:43:13;;;;;;;2.87;2.60;;;11.60;91.20;;;;;;5075426;28;20636;-88
2021/05/07 10:45:45;;;;;;;2.93;2.70;;;12.10;87.40;;;;;;5077325;28;20655;-88
2021/05/07 10:48:16;;;;;;;3.00;2.80;;;12.50;87.50;;;;;;5087372;28;20698;-88
2021/05/07 10:50:43;;;;;;;4.87;3.03;;;12.40;87.90;;;;;;5076535;28;20714;-86
2021/05/07 10:53:09;;;;;;;3.13;2.93;;;12.20;89.40;;;;;;5081308;28;20958;-87
2021/05/07 10:55:37;;;;;;;3.03;2.77;;;12.60;86.20;;;;;;5081697;28;20647;-87
2021/05/07 10:58:04;;;;;;;3.33;3.03;;;13.30;83.90;;;;;;5078763;28;20816;-88
2021/05/07 11:00:36;;;;;;;4.30;3.90;;;12.40;86.00;;;;;;5074597;28;20627;-88
2021/05/07 11:03:05;;;;;;;3.13;2.83;;;12.40;90.00;;;;;;5074292;28;20797;-87
2021/05/07 11:05:38;;;;;;;4.70;3.83;;;12.00;90.00;;;;;;5086494;28;20656;-87
2021/05/07 11:08:05;;;;;;;4.07;3.77;;;12.10;88.70;;;;;;5080530;28;20981;-86
2021/05/07 11:10:32;;;;;;;3.30;2.40;;;12.20;87.70;;;;;;5074931;28;21238;-86
2021/05/07 11:13:01;;;;;;;2.77;2.20;;;12.10;88.70;;;;;;5081694;28;20607;-87
2021/05/07 11:15:30;;;;;;;3.53;2.80;;;12.70;88.60;;;;;;5082763;28;20694;-86
2021/05/07 11:18:03;;;;;;;3.93;2.70;;;12.00;84.80;;;;;;5079596;28;20658;-86
2021/05/07 11:20:34;;;;;;;3.30;2.70;;;12.10;86.00;;;;;;5079815;28;20780;-86
2021/05/07 11:23:02;;;;;;;4.17;2.70;;;13.10;84.60;;;;;;5085022;28;20628;-86
2021/05/07 11:25:31;;;;;;;2.27;2.07;;;12.50;80.00;;;;;;5067509;28;21242;-86
2021/05/07 11:28:11;;;;;;;3.00;2.80;;;12.20;81.20;;;;;;5080200;28;21218;-86
2021/05/07 11:30:49;;;;;;;3.93;2.80;;;12.00;77.80;;;;;;5080752;28;21055;-84
2021/05/07 11:33:17;;;;;;;4.10;2.20;;;12.40;76.60;;;;;;5082220;28;20629;-86
2021/05/07 11:35:44;;;;;;;2.63;2.40;;;12.70;77.80;;;;;;5084707;28;20678;-85
2021/05/07 11:38:12;;;;;;;3.27;2.43;;;13.10;74.90;;;;;;5076908;28;20810;-88
2021/05/07 11:40:40;;;;;;;2.77;2.40;;;13.80;76.00;;;;;;5085225;28;20631;-88
2021/05/07 11:43:12;;;;;;;5.10;2.70;;;13.60;73.80;;;;;;5088613;28;20637;-88
2021/05/07 11:45:40;;;;;;;6.43;2.13;;;13.50;70.40;;;;;;5081627;28;20702;-87
2021/05/07 11:48:09;;;;;;;3.50;2.30;;;13.20;70.80;;;;;;5055544;28;20690;-86
2021/05/07 11:50:35;;;;;;;3.10;2.43;;;12.70;73.30;;;;;;5073959;28;20653;-88
2021/05/07 11:53:02;;;;;;;6.03;2.90;;;12.20;75.20;;;;;;5082672;28;20640;-88
2021/05/07 11:55:31;;;;;;;4.03;2.53;;;12.10;77.80;;;;;;5081321;28;20701;-87
2021/05/07 11:58:02;;;;;;;3.03;2.73;;;11.70;79.40;;;;;;5080773;28;20656;-87
2021/05/07 12:00:31;;;;;;;2.60;2.40;;;12.30;79.30;;;;;;5082187;28;21181;-87
2021/05/07 12:02:59;;;;;;;4.60;2.70;;;12.90;75.20;;;;;;5086436;28;20707;-88
2021/05/07 12:05:29;;;;;;;3.30;2.60;;;13.70;76.40;;;;;;5082817;28;20665;-86
2021/05/07 12:07:55;;;;;;;2.57;2.00;;;13.90;73.20;;;;;;5081127;28;20869;-88
2021/05/07 12:10:23;;;;;;;2.83;2.20;;;13.10;73.40;;;;;;5080541;28;20671;-87
2021/05/07 12:12:49;;;;;;;3.73;2.43;;;12.70;75.40;;;;;;5061034;28;21096;-87
2021/05/07 12:15:17;;;;;;;4.90;2.83;;;12.20;77.20;;;;;;5084722;28;20636;-88
2021/05/07 12:17:45;;;;;;;4.93;3.10;;;12.20;83.40;;;;;;5059609;28;20652;-88
2021/05/07 12:20:13;;;;;;;3.10;2.67;;;13.10;85.20;;;;;;5078695;28;20631;-88
2021/05/07 12:22:42;;;;;;;3.00;2.70;;;14.90;78.40;;;;;;5079357;28;21453;-88
2021/05/07 12:25:10;;;;;;;2.97;2.40;;;14.40;74.50;;;;;;5077975;28;21053;-88
2021/05/07 12:27:38;;;;;;;3.13;2.77;;;14.00;77.60;;;;;;5073939;28;21164;-88
2021/05/07 12:30:21;;;;;;;2.40;2.20;;;14.00;74.80;;;;;;5076265;28;20770;-88
2021/05/07 12:33:13;;;;;;;3.20;2.37;;;13.10;74.90;;;;;;5077627;28;20664;-87
2021/05/07 12:35:41;;;;;;;3.20;2.90;;;13.10;76.80;;;;;;5079958;28;20652;-88
2021/05/07 12:38:19;;;;;;;3.13;2.17;;;12.90;78.80;;;;;;5087956;28;21195;-89
2021/05/07 12:40:46;;;;;;;5.60;3.20;;;12.90;77.50;;;;;;5079571;28;21270;-86
2021/05/07 12:43:12;;;;;;;2.57;2.40;;;12.40;75.90;;;;;;5081052;28;20678;-86
2021/05/07 12:45:38;;;;;;;2.80;2.60;;;12.20;78.10;;;;;;5079676;28;20628;-87
2021/05/07 12:48:06;;;;;;;3.63;2.53;;;12.00;76.50;;;;;;5084592;28;20620;-86
2021/05/07 12:50:33;;;;;;;2.77;2.37;;;11.90;78.70;;;;;;5078119;28;21209;-86
2021/05/07 12:52:59;;;;;;;4.30;2.80;;;11.80;78.50;;;;;;5077518;28;20733;-86
2021/05/07 12:55:26;;;;;;;3.10;2.53;;;11.70;78.70;;;;;;5085072;28;21025;-86
2021/05/07 12:57:52;;;;;;;3.07;2.87;;;11.60;79.60;;;;;;5082502;28;20620;-88
2021/05/07 13:00:20;;;;;;;5.40;2.57;;;12.50;79.90;;;;;;5061758;28;20615;-88